sensor_id;sensor_type;location;lat;lon;timestamp;temperature;humidity
60293;DHT22;52402;52.670;6.750;2023-07-31T00:01:42;15.70;99.90
60293;DHT22;52402;52.670;6.750;2023-07-31T00:04:08;15.70;99.90
60293;DHT22;52402;52.670;6.750;2023-07-31T00:06:33;15.70;99.90
60293;DHT22;52402;52.670;6.750;2023-07-31T00:08:59;15.60;99.90
60293;DHT22;52402;52.670;6.750;2023-07-31T00:11:25;15.70;99.90
60293;DHT22;52402;52.670;6.750;2023-07-31T00:13:52;15.60;99.90
60293;DHT22;52402;52.670;6.750;2023-07-31T00:16:18;15.60;99.90
60293;DHT22;52402;52.670;6.750;2023-07-31T00:18:43;15.60;99.90
60293;DHT22;52402;52.670;6.750;2023-07-31T00:21:09;15.60;99.90
60293;DHT22;52402;52.670;6.750;2023-07-31T00:23:35;15.50;99.90
60293;DHT22;52402;52.670;6.750;2023-07-31T00:26:00;15.60;99.90
60293;DHT22;52402;52.670;6.750;2023-07-31T00:28:26;15.50;99.90
60293;DHT22;52402;52.670;6.750;2023-07-31T00:30:52;15.50;99.90
60293;DHT22;52402;52.670;6.750;2023-07-31T00:33:18;15.50;99.90
60293;DHT22;52402;52.670;6.750;2023-07-31T00:35:44;15.40;99.90
60293;DHT22;52402;52.670;6.750;2023-07-31T00:38:09;15.40;99.90
60293;DHT22;52402;52.670;6.750;2023-07-31T00:40:36;15.40;99.90
60293;DHT22;52402;52.670;6.750;2023-07-31T00:43:03;15.40;99.90
60293;DHT22;52402;52.670;6.750;2023-07-31T00:45:29;15.40;99.90
60293;DHT22;52402;52.670;6.750;2023-07-31T00:47:54;15.40;99.90
60293;DHT22;52402;52.670;6.750;2023-07-31T00:50:24;15.40;99.90
60293;DHT22;52402;52.670;6.750;2023-07-31T00:52:50;15.30;99.90
60293;DHT22;52402;52.670;6.750;2023-07-31T00:55:16;15.30;99.90
60293;DHT22;52402;52.670;6.750;2023-07-31T00:57:42;15.30;99.90
60293;DHT22;52402;52.670;6.750;2023-07-31T01:00:08;15.30;99.90
60293;DHT22;52402;52.670;6.750;2023-07-31T01:02:35;15.30;99.90
60293;DHT22;52402;52.670;6.750;2023-07-31T01:05:02;15.20;99.90
60293;DHT22;52402;52.670;6.750;2023-07-31T01:07:52;15.20;99.90
60293;DHT22;52402;52.670;6.750;2023-07-31T01:10:26;15.20;99.90
60293;DHT22;52402;52.670;6.750;2023-07-31T01:12:57;15.20;99.90
60293;DHT22;52402;52.670;6.750;2023-07-31T01:15:23;15.20;99.90
60293;DHT22;52402;52.670;6.750;2023-07-31T01:17:48;15.20;99.90
60293;DHT22;52402;52.670;6.750;2023-07-31T01:20:22;15.10;99.90
60293;DHT22;52402;52.670;6.750;2023-07-31T01:29:02;15.10;99.90
60293;DHT22;52402;52.670;6.750;2023-07-31T01:31:26;15.10;99.90
60293;DHT22;52402;52.670;6.750;2023-07-31T01:33:57;15.10;99.90
60293;DHT22;52402;52.670;6.750;2023-07-31T01:36:25;15.10;99.90
60293;DHT22;52402;52.670;6.750;2023-07-31T01:38:50;15.10;99.90
60293;DHT22;52402;52.670;6.750;2023-07-31T01:41:17;15.10;99.90
60293;DHT22;52402;52.670;6.750;2023-07-31T01:43:44;15.10;99.90
60293;DHT22;52402;52.670;6.750;2023-07-31T01:46:10;15.10;99.90
60293;DHT22;52402;52.670;6.750;2023-07-31T01:48:35;15.10;99.90
60293;DHT22;52402;52.670;6.750;2023-07-31T01:51:02;15.10;99.90
60293;DHT22;52402;52.670;6.750;2023-07-31T01:53:29;15.10;99.90
60293;DHT22;52402;52.670;6.750;2023-07-31T01:55:55;15.20;99.90
60293;DHT22;52402;52.670;6.750;2023-07-31T01:58:21;15.20;99.90
60293;DHT22;52402;52.670;6.750;2023-07-31T02:00:46;15.20;99.90
60293;DHT22;52402;52.670;6.750;2023-07-31T02:03:12;15.20;99.90
60293;DHT22;52402;52.670;6.750;2023-07-31T02:05:44;15.20;99.90
60293;DHT22;52402;52.670;6.750;2023-07-31T02:08:10;15.20;99.90
60293;DHT22;52402;52.670;6.750;2023-07-31T02:10:35;15.20;99.90
60293;DHT22;52402;52.670;6.750;2023-07-31T02:13:01;15.10;99.90
60293;DHT22;52402;52.670;6.750;2023-07-31T02:15:29;15.20;99.90
60293;DHT22;52402;52.670;6.750;2023-07-31T02:17:55;15.20;99.90
60293;DHT22;52402;52.670;6.750;2023-07-31T02:20:21;15.20;99.90
60293;DHT22;52402;52.670;6.750;2023-07-31T02:22:46;15.20;99.90
60293;DHT22;52402;52.670;6.750;2023-07-31T02:25:12;15.20;99.90
60293;DHT22;52402;52.670;6.750;2023-07-31T02:27:38;15.20;99.90
60293;DHT22;52402;52.670;6.750;2023-07-31T02:30:03;15.20;99.90
60293;DHT22;52402;52.670;6.750;2023-07-31T02:32:29;15.20;99.90
60293;DHT22;52402;52.670;6.750;2023-07-31T02:34:55;15.20;99.90
60293;DHT22;52402;52.670;6.750;2023-07-31T02:37:20;15.30;99.90
60293;DHT22;52402;52.670;6.750;2023-07-31T02:39:46;15.20;99.90
60293;DHT22;52402;52.670;6.750;2023-07-31T02:42:13;15.30;99.90
60293;DHT22;52402;52.670;6.750;2023-07-31T02:44:39;15.30;99.90
60293;DHT22;52402;52.670;6.750;2023-07-31T02:47:04;15.30;99.90
60293;DHT22;52402;52.670;6.750;2023-07-31T02:49:30;15.30;99.90
60293;DHT22;52402;52.670;6.750;2023-07-31T02:51:56;15.30;99.90
60293;DHT22;52402;52.670;6.750;2023-07-31T02:54:23;15.30;99.90
60293;DHT22;52402;52.670;6.750;2023-07-31T02:56:48;15.30;99.90
60293;DHT22;52402;52.670;6.750;2023-07-31T02:59:14;15.40;99.90
60293;DHT22;52402;52.670;6.750;2023-07-31T03:01:40;15.40;99.90
60293;DHT22;52402;52.670;6.750;2023-07-31T03:04:05;15.40;99.90
60293;DHT22;52402;52.670;6.750;2023-07-31T03:06:31;15.40;99.90
60293;DHT22;52402;52.670;6.750;2023-07-31T03:08:57;15.40;99.90
60293;DHT22;52402;52.670;6.750;2023-07-31T03:11:22;15.40;99.90
60293;DHT22;52402;52.670;6.750;2023-07-31T03:13:48;15.40;99.90
60293;DHT22;52402;52.670;6.750;2023-07-31T03:16:14;15.40;99.90
60293;DHT22;52402;52.670;6.750;2023-07-31T03:18:39;15.40;99.90
60293;DHT22;52402;52.670;6.750;2023-07-31T03:21:05;15.40;99.90
60293;DHT22;52402;52.670;6.750;2023-07-31T03:23:30;15.50;99.90
60293;DHT22;52402;52.670;6.750;2023-07-31T03:26:01;15.50;99.90
60293;DHT22;52402;52.670;6.750;2023-07-31T03:28:28;15.50;99.90
60293;DHT22;52402;52.670;6.750;2023-07-31T03:30:54;15.50;99.90
60293;DHT22;52402;52.670;6.750;2023-07-31T03:33:19;15.50;99.90
60293;DHT22;52402;52.670;6.750;2023-07-31T03:35:45;15.50;99.90
60293;DHT22;52402;52.670;6.750;2023-07-31T03:38:11;15.50;99.90
60293;DHT22;52402;52.670;6.750;2023-07-31T03:40:37;15.50;99.90
60293;DHT22;52402;52.670;6.750;2023-07-31T03:43:02;15.50;99.90
60293;DHT22;52402;52.670;6.750;2023-07-31T03:45:28;15.50;99.90
60293;DHT22;52402;52.670;6.750;2023-07-31T03:47:53;15.50;99.90
60293;DHT22;52402;52.670;6.750;2023-07-31T03:50:20;15.50;99.90
60293;DHT22;52402;52.670;6.750;2023-07-31T03:52:46;15.60;99.90
60293;DHT22;52402;52.670;6.750;2023-07-31T03:55:12;15.60;99.90
60293;DHT22;52402;52.670;6.750;2023-07-31T03:57:38;15.60;99.90
60293;DHT22;52402;52.670;6.750;2023-07-31T04:00:04;15.60;99.90
60293;DHT22;52402;52.670;6.750;2023-07-31T04:02:29;15.60;99.90
60293;DHT22;52402;52.670;6.750;2023-07-31T04:04:55;15.60;99.90
60293;DHT22;52402;52.670;6.750;2023-07-31T04:07:21;15.60;99.90
60293;DHT22;52402;52.670;6.750;2023-07-31T04:09:46;15.60;99.90
60293;DHT22;52402;52.670;6.750;2023-07-31T04:12:12;15.60;99.90
60293;DHT22;52402;52.670;6.750;2023-07-31T04:14:38;15.70;99.90
60293;DHT22;52402;52.670;6.750;2023-07-31T04:17:03;15.70;99.90
60293;DHT22;52402;52.670;6.750;2023-07-31T04:19:29;15.70;99.90
60293;DHT22;52402;52.670;6.750;2023-07-31T04:21:55;15.70;99.90
60293;DHT22;52402;52.670;6.750;2023-07-31T04:24:20;15.70;99.90
60293;DHT22;52402;52.670;6.750;2023-07-31T04:26:53;15.70;99.90
60293;DHT22;52402;52.670;6.750;2023-07-31T04:29:19;15.70;99.90
60293;DHT22;52402;52.670;6.750;2023-07-31T04:31:45;15.70;99.90
60293;DHT22;52402;52.670;6.750;2023-07-31T04:34:10;15.80;99.90
60293;DHT22;52402;52.670;6.750;2023-07-31T04:36:37;15.80;99.90
60293;DHT22;52402;52.670;6.750;2023-07-31T04:39:02;15.80;99.90
60293;DHT22;52402;52.670;6.750;2023-07-31T04:41:28;15.80;99.90
60293;DHT22;52402;52.670;6.750;2023-07-31T04:43:54;15.80;99.90
60293;DHT22;52402;52.670;6.750;2023-07-31T04:46:19;15.90;99.90
60293;DHT22;52402;52.670;6.750;2023-07-31T04:48:45;15.80;99.90
60293;DHT22;52402;52.670;6.750;2023-07-31T04:51:10;15.80;99.90
60293;DHT22;52402;52.670;6.750;2023-07-31T04:53:36;15.90;99.90
60293;DHT22;52402;52.670;6.750;2023-07-31T04:56:02;15.90;99.90
60293;DHT22;52402;52.670;6.750;2023-07-31T04:58:28;15.90;99.90
60293;DHT22;52402;52.670;6.750;2023-07-31T05:00:54;15.90;99.90
60293;DHT22;52402;52.670;6.750;2023-07-31T05:03:19;15.80;99.90
60293;DHT22;52402;52.670;6.750;2023-07-31T05:05:45;15.90;99.90
60293;DHT22;52402;52.670;6.750;2023-07-31T05:08:10;16.00;99.90
60293;DHT22;52402;52.670;6.750;2023-07-31T05:10:36;16.00;99.90
60293;DHT22;52402;52.670;6.750;2023-07-31T05:13:02;16.00;99.90
60293;DHT22;52402;52.670;6.750;2023-07-31T05:15:28;16.00;99.90
60293;DHT22;52402;52.670;6.750;2023-07-31T05:17:53;16.00;99.90
60293;DHT22;52402;52.670;6.750;2023-07-31T05:20:20;16.00;99.90
60293;DHT22;52402;52.670;6.750;2023-07-31T05:22:45;16.00;99.90
60293;DHT22;52402;52.670;6.750;2023-07-31T05:25:11;16.00;99.90
60293;DHT22;52402;52.670;6.750;2023-07-31T05:27:37;16.10;99.90
60293;DHT22;52402;52.670;6.750;2023-07-31T05:30:03;16.10;99.90
60293;DHT22;52402;52.670;6.750;2023-07-31T05:32:28;16.10;99.90
60293;DHT22;52402;52.670;6.750;2023-07-31T05:34:54;16.10;99.90
60293;DHT22;52402;52.670;6.750;2023-07-31T05:37:20;16.10;99.90
60293;DHT22;52402;52.670;6.750;2023-07-31T05:39:46;16.20;99.90
60293;DHT22;52402;52.670;6.750;2023-07-31T05:42:11;16.20;99.90
60293;DHT22;52402;52.670;6.750;2023-07-31T05:44:37;16.10;99.90
60293;DHT22;52402;52.670;6.750;2023-07-31T05:47:03;16.20;99.90
60293;DHT22;52402;52.670;6.750;2023-07-31T05:49:28;16.20;99.90
60293;DHT22;52402;52.670;6.750;2023-07-31T05:51:54;16.20;99.90
60293;DHT22;52402;52.670;6.750;2023-07-31T05:54:20;16.20;99.90
60293;DHT22;52402;52.670;6.750;2023-07-31T05:56:45;16.20;99.90
60293;DHT22;52402;52.670;6.750;2023-07-31T05:59:12;16.20;99.90
60293;DHT22;52402;52.670;6.750;2023-07-31T06:01:38;16.20;99.90
60293;DHT22;52402;52.670;6.750;2023-07-31T06:04:03;16.20;99.90
60293;DHT22;52402;52.670;6.750;2023-07-31T06:06:29;16.20;99.90
60293;DHT22;52402;52.670;6.750;2023-07-31T06:08:55;16.20;99.90
60293;DHT22;52402;52.670;6.750;2023-07-31T06:11:21;16.20;99.90
60293;DHT22;52402;52.670;6.750;2023-07-31T06:13:47;16.20;99.90
60293;DHT22;52402;52.670;6.750;2023-07-31T06:16:14;16.20;99.90
60293;DHT22;52402;52.670;6.750;2023-07-31T06:18:41;16.20;99.90
60293;DHT22;52402;52.670;6.750;2023-07-31T06:21:07;16.20;99.90
60293;DHT22;52402;52.670;6.750;2023-07-31T06:23:33;16.20;99.90
60293;DHT22;52402;52.670;6.750;2023-07-31T06:25:59;16.30;99.90
60293;DHT22;52402;52.670;6.750;2023-07-31T06:28:28;16.30;99.90
60293;DHT22;52402;52.670;6.750;2023-07-31T06:30:54;16.30;99.90
60293;DHT22;52402;52.670;6.750;2023-07-31T06:33:20;16.30;99.90
60293;DHT22;52402;52.670;6.750;2023-07-31T06:36:08;16.30;99.90
60293;DHT22;52402;52.670;6.750;2023-07-31T06:38:37;16.30;99.90
60293;DHT22;52402;52.670;6.750;2023-07-31T06:41:03;16.30;99.90
60293;DHT22;52402;52.670;6.750;2023-07-31T06:43:31;16.30;99.90
60293;DHT22;52402;52.670;6.750;2023-07-31T06:46:05;16.30;99.90
60293;DHT22;52402;52.670;6.750;2023-07-31T06:48:32;16.20;99.90
60293;DHT22;52402;52.670;6.750;2023-07-31T06:50:58;16.20;99.90
60293;DHT22;52402;52.670;6.750;2023-07-31T06:53:24;16.20;99.90
60293;DHT22;52402;52.670;6.750;2023-07-31T06:55:50;16.30;99.90
60293;DHT22;52402;52.670;6.750;2023-07-31T06:58:17;16.30;99.90
60293;DHT22;52402;52.670;6.750;2023-07-31T07:00:43;16.20;99.90
60293;DHT22;52402;52.670;6.750;2023-07-31T07:03:09;16.30;99.90
60293;DHT22;52402;52.670;6.750;2023-07-31T07:05:34;16.20;99.90
60293;DHT22;52402;52.670;6.750;2023-07-31T07:08:00;16.20;99.90
60293;DHT22;52402;52.670;6.750;2023-07-31T07:10:26;16.20;99.90
60293;DHT22;52402;52.670;6.750;2023-07-31T07:12:52;16.30;99.90
60293;DHT22;52402;52.670;6.750;2023-07-31T07:15:18;16.30;99.90
60293;DHT22;52402;52.670;6.750;2023-07-31T07:17:43;16.30;99.90
60293;DHT22;52402;52.670;6.750;2023-07-31T07:20:09;16.30;99.90
60293;DHT22;52402;52.670;6.750;2023-07-31T07:22:34;16.30;99.90
60293;DHT22;52402;52.670;6.750;2023-07-31T07:25:00;16.40;99.90
60293;DHT22;52402;52.670;6.750;2023-07-31T07:27:26;16.40;99.90
60293;DHT22;52402;52.670;6.750;2023-07-31T07:29:51;16.40;99.90
60293;DHT22;52402;52.670;6.750;2023-07-31T07:32:20;16.60;99.90
60293;DHT22;52402;52.670;6.750;2023-07-31T07:34:47;16.50;99.90
60293;DHT22;52402;52.670;6.750;2023-07-31T07:37:13;16.50;99.90
60293;DHT22;52402;52.670;6.750;2023-07-31T07:39:39;16.50;99.90
60293;DHT22;52402;52.670;6.750;2023-07-31T07:42:05;16.50;99.90
60293;DHT22;52402;52.670;6.750;2023-07-31T07:44:30;16.50;99.90
60293;DHT22;52402;52.670;6.750;2023-07-31T07:46:56;16.40;99.90
60293;DHT22;52402;52.670;6.750;2023-07-31T07:49:21;16.50;99.90
60293;DHT22;52402;52.670;6.750;2023-07-31T07:51:50;16.40;99.90
60293;DHT22;52402;52.670;6.750;2023-07-31T07:54:16;16.50;99.90
60293;DHT22;52402;52.670;6.750;2023-07-31T07:56:46;16.50;99.90
60293;DHT22;52402;52.670;6.750;2023-07-31T07:59:12;16.60;99.90
60293;DHT22;52402;52.670;6.750;2023-07-31T08:01:38;16.60;99.90
60293;DHT22;52402;52.670;6.750;2023-07-31T08:04:03;16.70;99.90
60293;DHT22;52402;52.670;6.750;2023-07-31T08:06:29;16.70;99.90
60293;DHT22;52402;52.670;6.750;2023-07-31T08:08:55;16.70;99.90
60293;DHT22;52402;52.670;6.750;2023-07-31T08:11:21;16.70;99.90
60293;DHT22;52402;52.670;6.750;2023-07-31T08:13:49;16.70;99.90
60293;DHT22;52402;52.670;6.750;2023-07-31T08:16:14;16.80;99.90
60293;DHT22;52402;52.670;6.750;2023-07-31T08:18:40;16.80;99.90
60293;DHT22;52402;52.670;6.750;2023-07-31T08:21:07;16.90;99.90
60293;DHT22;52402;52.670;6.750;2023-07-31T08:23:33;16.80;99.90
60293;DHT22;52402;52.670;6.750;2023-07-31T08:25:59;16.90;99.90
60293;DHT22;52402;52.670;6.750;2023-07-31T08:28:24;16.90;99.90
60293;DHT22;52402;52.670;6.750;2023-07-31T08:30:50;16.90;99.90
60293;DHT22;52402;52.670;6.750;2023-07-31T08:33:16;17.00;99.90
60293;DHT22;52402;52.670;6.750;2023-07-31T08:35:42;17.10;99.90
60293;DHT22;52402;52.670;6.750;2023-07-31T08:38:07;17.10;99.90
60293;DHT22;52402;52.670;6.750;2023-07-31T08:40:36;17.00;99.90
60293;DHT22;52402;52.670;6.750;2023-07-31T08:43:03;17.00;99.90
60293;DHT22;52402;52.670;6.750;2023-07-31T08:45:32;17.10;99.90
60293;DHT22;52402;52.670;6.750;2023-07-31T08:47:58;17.20;99.90
60293;DHT22;52402;52.670;6.750;2023-07-31T08:50:24;17.40;99.90
60293;DHT22;52402;52.670;6.750;2023-07-31T08:52:51;17.50;99.90
60293;DHT22;52402;52.670;6.750;2023-07-31T08:55:18;17.50;99.90
60293;DHT22;52402;52.670;6.750;2023-07-31T08:57:51;17.60;99.90
60293;DHT22;52402;52.670;6.750;2023-07-31T09:00:18;17.60;99.90
60293;DHT22;52402;52.670;6.750;2023-07-31T09:02:51;17.60;99.90
60293;DHT22;52402;52.670;6.750;2023-07-31T09:05:17;17.60;99.90
60293;DHT22;52402;52.670;6.750;2023-07-31T09:07:47;17.70;99.90
60293;DHT22;52402;52.670;6.750;2023-07-31T09:10:13;17.70;99.90
60293;DHT22;52402;52.670;6.750;2023-07-31T09:12:39;17.70;99.90
60293;DHT22;52402;52.670;6.750;2023-07-31T09:15:05;17.70;99.90
60293;DHT22;52402;52.670;6.750;2023-07-31T09:17:35;17.70;99.90
60293;DHT22;52402;52.670;6.750;2023-07-31T09:20:20;17.70;99.90
60293;DHT22;52402;52.670;6.750;2023-07-31T09:22:48;17.80;99.90
60293;DHT22;52402;52.670;6.750;2023-07-31T09:25:18;17.80;99.90
60293;DHT22;52402;52.670;6.750;2023-07-31T09:28:03;17.70;99.90
60293;DHT22;52402;52.670;6.750;2023-07-31T09:30:29;17.80;99.90
60293;DHT22;52402;52.670;6.750;2023-07-31T09:33:04;17.80;99.90
60293;DHT22;52402;52.670;6.750;2023-07-31T09:35:33;17.90;99.90
60293;DHT22;52402;52.670;6.750;2023-07-31T09:38:07;17.90;99.90
60293;DHT22;52402;52.670;6.750;2023-07-31T09:40:36;18.00;99.90
60293;DHT22;52402;52.670;6.750;2023-07-31T09:43:06;17.90;99.90
60293;DHT22;52402;52.670;6.750;2023-07-31T09:45:38;17.90;99.90
60293;DHT22;52402;52.670;6.750;2023-07-31T09:48:10;18.00;99.90
60293;DHT22;52402;52.670;6.750;2023-07-31T09:50:37;18.00;99.90
60293;DHT22;52402;52.670;6.750;2023-07-31T09:53:05;18.00;99.90
60293;DHT22;52402;52.670;6.750;2023-07-31T09:55:31;18.10;99.90
60293;DHT22;52402;52.670;6.750;2023-07-31T09:58:02;18.30;99.90
60293;DHT22;52402;52.670;6.750;2023-07-31T10:00:30;18.30;99.90
60293;DHT22;52402;52.670;6.750;2023-07-31T10:02:59;18.30;99.90
60293;DHT22;52402;52.670;6.750;2023-07-31T10:05:34;18.30;99.90
60293;DHT22;52402;52.670;6.750;2023-07-31T10:08:00;18.30;99.90
60293;DHT22;52402;52.670;6.750;2023-07-31T10:10:26;18.50;99.90
60293;DHT22;52402;52.670;6.750;2023-07-31T10:12:54;18.50;99.90
60293;DHT22;52402;52.670;6.750;2023-07-31T10:15:21;18.60;99.90
60293;DHT22;52402;52.670;6.750;2023-07-31T10:17:48;18.60;99.90
60293;DHT22;52402;52.670;6.750;2023-07-31T10:20:15;18.70;99.90
60293;DHT22;52402;52.670;6.750;2023-07-31T10:22:42;18.80;99.90
60293;DHT22;52402;52.670;6.750;2023-07-31T10:25:09;18.80;99.90
60293;DHT22;52402;52.670;6.750;2023-07-31T10:27:41;18.80;99.90
60293;DHT22;52402;52.670;6.750;2023-07-31T10:30:14;18.90;99.90
60293;DHT22;52402;52.670;6.750;2023-07-31T10:32:41;19.00;99.90
60293;DHT22;52402;52.670;6.750;2023-07-31T10:35:08;19.10;99.90
60293;DHT22;52402;52.670;6.750;2023-07-31T10:37:40;19.10;99.90
60293;DHT22;52402;52.670;6.750;2023-07-31T10:40:11;19.10;99.90
60293;DHT22;52402;52.670;6.750;2023-07-31T10:45:14;19.10;99.90
60293;DHT22;52402;52.670;6.750;2023-07-31T10:47:45;19.10;99.90
60293;DHT22;52402;52.670;6.750;2023-07-31T10:50:21;19.00;99.90
60293;DHT22;52402;52.670;6.750;2023-07-31T10:52:50;19.10;99.90
60293;DHT22;52402;52.670;6.750;2023-07-31T10:55:32;19.10;99.90
60293;DHT22;52402;52.670;6.750;2023-07-31T10:58:13;19.20;99.90
60293;DHT22;52402;52.670;6.750;2023-07-31T11:00:42;19.30;99.90
60293;DHT22;52402;52.670;6.750;2023-07-31T11:03:14;19.30;99.90
60293;DHT22;52402;52.670;6.750;2023-07-31T11:05:48;19.20;99.90
60293;DHT22;52402;52.670;6.750;2023-07-31T11:08:24;19.20;99.90
60293;DHT22;52402;52.670;6.750;2023-07-31T11:11:06;19.20;99.90
60293;DHT22;52402;52.670;6.750;2023-07-31T11:16:14;19.30;99.90
60293;DHT22;52402;52.670;6.750;2023-07-31T11:18:41;19.30;99.90
60293;DHT22;52402;52.670;6.750;2023-07-31T11:21:11;19.30;99.90
60293;DHT22;52402;52.670;6.750;2023-07-31T11:23:37;19.40;99.90
60293;DHT22;52402;52.670;6.750;2023-07-31T11:26:05;19.40;99.90
60293;DHT22;52402;52.670;6.750;2023-07-31T11:28:35;19.40;99.90
60293;DHT22;52402;52.670;6.750;2023-07-31T11:31:01;19.30;99.90
60293;DHT22;52402;52.670;6.750;2023-07-31T11:33:27;19.20;99.90
60293;DHT22;52402;52.670;6.750;2023-07-31T11:35:53;19.20;99.90
60293;DHT22;52402;52.670;6.750;2023-07-31T11:38:30;19.20;99.90
60293;DHT22;52402;52.670;6.750;2023-07-31T11:41:01;19.20;99.90
60293;DHT22;52402;52.670;6.750;2023-07-31T11:43:31;19.20;99.90
60293;DHT22;52402;52.670;6.750;2023-07-31T11:45:58;19.10;99.90
60293;DHT22;52402;52.670;6.750;2023-07-31T11:48:29;19.20;99.90
60293;DHT22;52402;52.670;6.750;2023-07-31T11:50:58;19.30;99.90
60293;DHT22;52402;52.670;6.750;2023-07-31T11:53:45;19.50;99.90
60293;DHT22;52402;52.670;6.750;2023-07-31T11:56:15;19.60;99.90
60293;DHT22;52402;52.670;6.750;2023-07-31T11:58:43;19.80;99.90
60293;DHT22;52402;52.670;6.750;2023-07-31T12:01:11;19.70;99.90
60293;DHT22;52402;52.670;6.750;2023-07-31T12:03:37;19.60;99.90
60293;DHT22;52402;52.670;6.750;2023-07-31T12:06:03;19.60;99.90
60293;DHT22;52402;52.670;6.750;2023-07-31T12:08:29;19.50;99.90
60293;DHT22;52402;52.670;6.750;2023-07-31T12:11:02;19.30;99.90
60293;DHT22;52402;52.670;6.750;2023-07-31T12:13:32;19.30;99.90
60293;DHT22;52402;52.670;6.750;2023-07-31T12:16:03;19.30;99.90
60293;DHT22;52402;52.670;6.750;2023-07-31T12:18:40;19.30;99.90
60293;DHT22;52402;52.670;6.750;2023-07-31T12:21:07;19.30;99.90
60293;DHT22;52402;52.670;6.750;2023-07-31T12:23:35;19.40;99.90
60293;DHT22;52402;52.670;6.750;2023-07-31T12:26:05;19.40;99.90
60293;DHT22;52402;52.670;6.750;2023-07-31T12:31:04;19.40;99.90
60293;DHT22;52402;52.670;6.750;2023-07-31T12:33:32;19.40;99.90
60293;DHT22;52402;52.670;6.750;2023-07-31T12:35:59;19.40;99.90
60293;DHT22;52402;52.670;6.750;2023-07-31T12:38:25;19.50;99.90
60293;DHT22;52402;52.670;6.750;2023-07-31T12:40:51;19.50;99.90
60293;DHT22;52402;52.670;6.750;2023-07-31T12:43:17;19.40;99.90
60293;DHT22;52402;52.670;6.750;2023-07-31T12:45:43;19.50;99.90
60293;DHT22;52402;52.670;6.750;2023-07-31T12:48:08;19.50;99.90
60293;DHT22;52402;52.670;6.750;2023-07-31T12:50:34;19.50;99.90
60293;DHT22;52402;52.670;6.750;2023-07-31T12:53:02;19.50;99.90
60293;DHT22;52402;52.670;6.750;2023-07-31T12:55:34;19.80;99.90
60293;DHT22;52402;52.670;6.750;2023-07-31T12:58:02;20.00;99.90
60293;DHT22;52402;52.670;6.750;2023-07-31T13:00:28;20.20;99.90
60293;DHT22;52402;52.670;6.750;2023-07-31T13:03:06;20.40;99.90
60293;DHT22;52402;52.670;6.750;2023-07-31T13:05:34;20.40;99.90
60293;DHT22;52402;52.670;6.750;2023-07-31T13:08:01;20.40;99.90
60293;DHT22;52402;52.670;6.750;2023-07-31T13:10:32;20.40;99.90
60293;DHT22;52402;52.670;6.750;2023-07-31T13:12:58;20.40;99.90
60293;DHT22;52402;52.670;6.750;2023-07-31T13:15:24;20.30;99.90
60293;DHT22;52402;52.670;6.750;2023-07-31T13:17:49;20.30;99.90
60293;DHT22;52402;52.670;6.750;2023-07-31T13:20:15;20.20;99.90
60293;DHT22;52402;52.670;6.750;2023-07-31T13:22:43;20.10;99.90
60293;DHT22;52402;52.670;6.750;2023-07-31T13:25:09;20.10;99.90
60293;DHT22;52402;52.670;6.750;2023-07-31T13:27:35;20.00;99.90
60293;DHT22;52402;52.670;6.750;2023-07-31T13:30:01;19.90;99.90
60293;DHT22;52402;52.670;6.750;2023-07-31T13:32:27;19.80;99.90
60293;DHT22;52402;52.670;6.750;2023-07-31T13:34:53;19.70;99.90
60293;DHT22;52402;52.670;6.750;2023-07-31T13:37:19;19.70;99.90
60293;DHT22;52402;52.670;6.750;2023-07-31T13:39:45;19.70;99.90
60293;DHT22;52402;52.670;6.750;2023-07-31T13:42:10;19.80;99.90
60293;DHT22;52402;52.670;6.750;2023-07-31T13:44:41;19.90;99.90
60293;DHT22;52402;52.670;6.750;2023-07-31T13:47:07;20.20;99.90
60293;DHT22;52402;52.670;6.750;2023-07-31T13:49:34;20.40;99.90
60293;DHT22;52402;52.670;6.750;2023-07-31T13:52:01;20.30;99.90
60293;DHT22;52402;52.670;6.750;2023-07-31T13:54:26;20.40;99.90
60293;DHT22;52402;52.670;6.750;2023-07-31T13:56:52;20.50;99.90
60293;DHT22;52402;52.670;6.750;2023-07-31T13:59:18;20.60;99.90
60293;DHT22;52402;52.670;6.750;2023-07-31T14:01:44;20.60;99.90
60293;DHT22;52402;52.670;6.750;2023-07-31T14:04:13;20.60;99.90
60293;DHT22;52402;52.670;6.750;2023-07-31T14:06:39;20.70;99.90
60293;DHT22;52402;52.670;6.750;2023-07-31T14:09:05;20.80;99.90
60293;DHT22;52402;52.670;6.750;2023-07-31T14:11:31;20.90;99.90
60293;DHT22;52402;52.670;6.750;2023-07-31T14:13:57;20.80;99.90
60293;DHT22;52402;52.670;6.750;2023-07-31T14:16:23;20.80;99.90
60293;DHT22;52402;52.670;6.750;2023-07-31T14:18:49;20.70;99.90
60293;DHT22;52402;52.670;6.750;2023-07-31T14:21:15;20.50;99.90
60293;DHT22;52402;52.670;6.750;2023-07-31T14:23:41;20.40;99.90
60293;DHT22;52402;52.670;6.750;2023-07-31T14:26:07;20.30;99.90
60293;DHT22;52402;52.670;6.750;2023-07-31T14:28:33;20.20;99.90
60293;DHT22;52402;52.670;6.750;2023-07-31T14:30:59;20.10;99.90
60293;DHT22;52402;52.670;6.750;2023-07-31T14:33:24;20.10;99.90
60293;DHT22;52402;52.670;6.750;2023-07-31T14:35:50;20.10;99.90
60293;DHT22;52402;52.670;6.750;2023-07-31T14:38:16;20.10;99.90
60293;DHT22;52402;52.670;6.750;2023-07-31T14:40:41;20.10;99.90
60293;DHT22;52402;52.670;6.750;2023-07-31T14:43:07;20.20;99.90
60293;DHT22;52402;52.670;6.750;2023-07-31T14:45:33;20.20;99.90
60293;DHT22;52402;52.670;6.750;2023-07-31T14:47:59;20.20;99.90
60293;DHT22;52402;52.670;6.750;2023-07-31T14:50:25;20.30;99.90
60293;DHT22;52402;52.670;6.750;2023-07-31T14:52:51;20.30;99.90
60293;DHT22;52402;52.670;6.750;2023-07-31T14:55:18;20.30;99.90
60293;DHT22;52402;52.670;6.750;2023-07-31T14:57:44;20.30;99.90
60293;DHT22;52402;52.670;6.750;2023-07-31T15:00:10;20.30;99.90
60293;DHT22;52402;52.670;6.750;2023-07-31T15:02:40;20.30;99.90
60293;DHT22;52402;52.670;6.750;2023-07-31T15:05:06;20.30;99.90
60293;DHT22;52402;52.670;6.750;2023-07-31T15:07:33;20.20;99.90
60293;DHT22;52402;52.670;6.750;2023-07-31T15:09:59;20.10;99.90
60293;DHT22;52402;52.670;6.750;2023-07-31T15:12:25;20.00;99.90
60293;DHT22;52402;52.670;6.750;2023-07-31T15:14:51;19.90;99.90
60293;DHT22;52402;52.670;6.750;2023-07-31T15:17:17;19.90;99.90
60293;DHT22;52402;52.670;6.750;2023-07-31T15:19:43;19.90;99.90
60293;DHT22;52402;52.670;6.750;2023-07-31T15:22:09;19.80;99.90
60293;DHT22;52402;52.670;6.750;2023-07-31T15:24:34;19.80;99.90
60293;DHT22;52402;52.670;6.750;2023-07-31T15:27:00;19.70;99.90
60293;DHT22;52402;52.670;6.750;2023-07-31T15:29:28;19.70;99.90
60293;DHT22;52402;52.670;6.750;2023-07-31T15:31:55;19.70;99.90
60293;DHT22;52402;52.670;6.750;2023-07-31T15:34:20;19.60;99.90
60293;DHT22;52402;52.670;6.750;2023-07-31T15:36:46;19.60;99.90
60293;DHT22;52402;52.670;6.750;2023-07-31T15:39:12;19.50;99.90
60293;DHT22;52402;52.670;6.750;2023-07-31T15:41:39;19.40;99.90
60293;DHT22;52402;52.670;6.750;2023-07-31T15:44:05;19.30;99.90